Time;durP1;ratioP1;P1;durP2;ratioP2;P2;SDS_P1;SDS_P2;PMS_P1;PMS_P2;Temp;Humidity;BMP_temperature;BMP_pressure;BME280_temperature;BME280_humidity;BME280_pressure;Samples;Min_cycle;Max_cycle;Signal;HPM_P1;HPM_P2
2022/01/26 00:07:32;;;;;;;151.13;62.20;;;3.50;87.10;;;;;;5017561;28;20045;-74
2022/01/26 00:09:58;;;;;;;144.00;61.28;;;3.50;87.30;;;;;;5017895;28;20041;-74
2022/01/26 00:12:23;;;;;;;128.68;57.08;;;3.50;87.40;;;;;;5010105;28;20100;-76
2022/01/26 00:14:49;;;;;;;128.32;57.35;;;3.50;87.50;;;;;;4996888;28;20350;-75
2022/01/26 00:17:15;;;;;;;146.82;62.78;;;3.50;87.50;;;;;;5007549;28;20029;-75
2022/01/26 00:19:56;;;;;;;140.85;60.35;;;3.50;87.60;;;;;;5014278;28;20438;-75
2022/01/26 00:22:39;;;;;;;146.23;60.55;;;3.50;87.50;;;;;;5013139;28;20041;-74
2022/01/26 00:25:33;;;;;;;137.32;58.00;;;3.50;87.60;;;;;;5013458;28;20830;-75
2022/01/26 00:38:44;;;;;;;151.77;62.85;;;3.40;87.90;;;;;;5018022;28;20033;-75
2022/01/26 00:41:17;;;;;;;173.20;80.90;;;3.40;87.80;;;;;;5011117;28;20128;-75
2022/01/26 00:43:54;;;;;;;210.43;102.53;;;3.40;87.80;;;;;;5012539;28;20789;-75
2022/01/26 00:46:20;;;;;;;200.43;101.47;;;3.40;87.90;;;;;;5015215;28;20487;-76
2022/01/26 00:48:47;;;;;;;209.20;103.95;;;3.40;87.90;;;;;;5020115;28;20029;-75
2022/01/26 00:51:16;;;;;;;197.85;98.70;;;3.40;88.00;;;;;;5014746;28;20029;-75
2022/01/26 00:53:47;;;;;;;184.13;86.03;;;3.40;88.10;;;;;;5018156;28;20384;-75
2022/01/26 00:56:14;;;;;;;163.05;77.88;;;3.40;88.10;;;;;;5014898;28;20449;-75
2022/01/26 00:58:40;;;;;;;143.02;71.55;;;3.40;88.10;;;;;;5021826;28;20345;-75
2022/01/26 01:01:07;;;;;;;188.32;87.25;;;3.40;88.10;;;;;;5021245;28;20502;-75
2022/01/26 01:03:35;;;;;;;166.52;81.10;;;3.40;88.10;;;;;;5020178;28;20045;-75
2022/01/26 01:06:11;;;;;;;162.27;73.38;;;3.40;88.10;;;;;;5016415;28;20076;-75
2022/01/26 01:08:39;;;;;;;148.43;68.40;;;3.40;88.10;;;;;;5014176;28;20079;-74
2022/01/26 01:11:05;;;;;;;138.65;63.30;;;3.30;88.30;;;;;;5021198;28;20029;-74
2022/01/26 01:13:36;;;;;;;126.80;57.58;;;3.30;88.40;;;;;;5021179;28;20041;-75
2022/01/26 01:16:04;;;;;;;118.07;54.08;;;3.30;88.30;;;;;;5017908;28;20045;-75
2022/01/26 01:31:12;;;;;;;120.82;49.47;;;3.30;88.70;;;;;;5021676;28;20037;-75
2022/01/26 01:33:43;;;;;;;116.40;49.97;;;3.30;88.80;;;;;;5019770;28;20381;-76
2022/01/26 01:36:11;;;;;;;117.13;49.38;;;3.30;88.80;;;;;;5019525;28;20040;-75
2022/01/26 01:38:40;;;;;;;118.53;50.08;;;3.20;88.80;;;;;;5021056;28;20353;-75
2022/01/26 01:41:05;;;;;;;108.97;48.90;;;3.20;88.90;;;;;;5002484;28;20456;-76
2022/01/26 01:43:31;;;;;;;109.72;48.38;;;3.20;89.00;;;;;;5004704;28;20040;-75
2022/01/26 01:45:57;;;;;;;108.18;48.45;;;3.20;89.00;;;;;;5019150;28;20030;-76
2022/01/26 01:48:30;;;;;;;111.20;50.50;;;3.20;89.10;;;;;;5011178;28;20099;-75
2022/01/26 01:50:58;;;;;;;110.80;47.42;;;3.20;89.10;;;;;;5020390;28;20026;-75
2022/01/26 01:53:32;;;;;;;113.03;48.25;;;3.10;89.30;;;;;;5019708;28;20060;-75
2022/01/26 01:55:59;;;;;;;112.25;45.50;;;3.20;89.30;;;;;;5015382;28;20032;-75
2022/01/26 01:58:25;;;;;;;109.40;47.85;;;3.20;89.30;;;;;;5018710;28;20491;-75
2022/01/26 02:00:51;;;;;;;108.03;46.20;;;3.20;89.40;;;;;;5015724;28;20042;-75
2022/01/26 02:03:16;;;;;;;117.78;49.08;;;3.20;89.40;;;;;;5019407;28;20354;-75
2022/01/26 02:05:42;;;;;;;109.85;45.97;;;3.10;89.40;;;;;;5020044;28;20295;-75
2022/01/26 02:08:08;;;;;;;105.95;46.85;;;3.10;89.40;;;;;;5017374;28;20057;-75
2022/01/26 02:10:34;;;;;;;113.82;47.03;;;3.10;89.40;;;;;;5021072;28;20072;-75
2022/01/26 02:13:04;;;;;;;103.50;44.20;;;3.10;89.40;;;;;;5021062;28;20042;-74
2022/01/26 02:15:42;;;;;;;114.97;49.05;;;3.10;89.50;;;;;;5021729;28;20032;-75
2022/01/26 02:55:55;;;;;;;101.40;45.78;;;3.00;90.20;;;;;;5016898;28;20456;-74
2022/01/26 03:06:25;;;;;;;113.95;47.03;;;3.00;90.40;;;;;;5016195;28;20052;-74
2022/01/26 03:08:58;;;;;;;107.85;48.38;;;3.00;90.40;;;;;;5016671;28;20045;-75
2022/01/26 03:11:27;;;;;;;103.32;45.85;;;3.00;90.40;;;;;;5018403;28;20043;-75
2022/01/26 03:14:02;;;;;;;113.20;47.13;;;3.00;90.50;;;;;;5018914;28;20425;-74
2022/01/26 03:16:34;;;;;;;114.80;45.80;;;3.00;90.50;;;;;;5012277;28;20692;-74
2022/01/26 03:28:11;;;;;;;105.53;44.83;;;3.00;90.70;;;;;;5017157;28;20040;-75
2022/01/26 03:35:27;;;;;;;110.00;44.60;;;3.00;90.70;;;;;;4999717;28;19925;-74
2022/01/26 03:37:55;;;;;;;108.30;45.13;;;3.00;90.70;;;;;;4995823;28;20072;-74
2022/01/26 03:40:29;;;;;;;109.70;44.97;;;3.00;90.60;;;;;;5000401;28;20975;-74
2022/01/26 03:42:56;;;;;;;113.57;45.83;;;3.00;90.70;;;;;;4999484;28;20497;-74
2022/01/26 03:45:21;;;;;;;104.38;45.03;;;3.00;90.60;;;;;;5002210;28;20704;-74
2022/01/26 03:47:47;;;;;;;106.18;47.78;;;3.00;90.60;;;;;;5016803;28;20124;-74
2022/01/26 03:50:12;;;;;;;109.32;48.25;;;3.00;90.60;;;;;;4999058;28;20032;-74
2022/01/26 03:52:38;;;;;;;105.28;46.85;;;3.10;90.60;;;;;;4999302;28;20038;-74
2022/01/26 03:55:05;;;;;;;109.43;47.80;;;3.00;90.60;;;;;;4999347;28;20034;-75
2022/01/26 03:57:31;;;;;;;119.10;46.78;;;3.00;90.60;;;;;;5004864;28;20509;-74
2022/01/26 03:59:56;;;;;;;100.80;46.28;;;3.10;90.50;;;;;;5007406;28;20049;-75
2022/01/26 04:02:22;;;;;;;102.68;44.95;;;3.00;90.50;;;;;;4995311;28;20041;-74
2022/01/26 04:04:54;;;;;;;100.57;45.47;;;3.00;90.40;;;;;;4992634;28;20638;-75
2022/01/26 04:07:19;;;;;;;107.93;47.40;;;3.00;90.40;;;;;;4997952;28;20126;-74
2022/01/26 04:09:45;;;;;;;104.25;46.08;;;3.00;90.50;;;;;;4998284;28;20043;-74
2022/01/26 04:12:11;;;;;;;101.93;45.60;;;3.00;90.50;;;;;;4994075;28;20036;-74
2022/01/26 04:14:37;;;;;;;102.53;46.47;;;3.00;90.50;;;;;;4993639;28;20213;-76
2022/01/26 04:17:03;;;;;;;104.25;46.15;;;3.10;90.40;;;;;;4995350;28;20145;-75
2022/01/26 04:19:32;;;;;;;111.03;48.85;;;3.10;90.40;;;;;;4998796;28;20056;-75
2022/01/26 04:22:14;;;;;;;112.57;46.25;;;3.10;90.30;;;;;;5004238;28;20474;-75
2022/01/26 04:24:45;;;;;;;100.78;46.83;;;3.10;90.40;;;;;;5011728;28;20025;-75
2022/01/26 04:29:37;;;;;;;100.88;46.72;;;3.10;90.30;;;;;;5004755;28;20030;-75
2022/01/26 04:32:05;;;;;;;102.20;46.47;;;3.10;90.30;;;;;;5000999;28;20088;-75
2022/01/26 04:34:33;;;;;;;99.80;45.10;;;3.10;90.20;;;;;;5003297;28;20099;-75
2022/01/26 04:37:09;;;;;;;102.50;46.30;;;3.10;90.30;;;;;;5017615;28;20034;-74
2022/01/26 04:40:21;;;;;;;95.47;45.53;;;3.10;90.40;;;;;;5002991;28;20030;-75
2022/01/26 04:42:35;;;;;;;103.93;47.33;;;3.10;90.30;;;;;;5001633;28;20052;-75
2022/01/26 04:45:06;;;;;;;97.90;46.20;;;3.10;90.30;;;;;;5009075;28;20083;-76
2022/01/26 04:47:32;;;;;;;99.28;44.95;;;3.10;90.30;;;;;;5002533;28;20033;-75
2022/01/26 04:49:58;;;;;;;99.32;45.47;;;3.10;90.30;;;;;;5004707;28;20049;-75
2022/01/26 04:52:24;;;;;;;97.00;46.80;;;3.10;90.30;;;;;;5001146;28;20136;-75
2022/01/26 04:54:50;;;;;;;96.32;46.30;;;3.10;90.30;;;;;;5003567;28;20038;-75
2022/01/26 04:57:15;;;;;;;106.22;47.95;;;3.10;90.30;;;;;;5000732;28;20038;-75
2022/01/26 04:59:41;;;;;;;101.28;46.63;;;3.10;90.40;;;;;;5007306;28;20128;-76
2022/01/26 05:02:07;;;;;;;99.15;46.40;;;3.10;90.40;;;;;;5006177;28;20038;-75
2022/01/26 05:04:32;;;;;;;110.32;49.22;;;3.10;90.40;;;;;;5000235;28;20072;-75
2022/01/26 05:06:58;;;;;;;97.07;46.97;;;3.20;90.30;;;;;;5002130;28;20056;-75
2022/01/26 05:09:23;;;;;;;104.30;47.90;;;3.20;90.40;;;;;;5001153;28;20506;-74
2022/01/26 05:11:52;;;;;;;95.03;44.47;;;3.20;90.40;;;;;;5002815;28;20537;-75
2022/01/26 05:14:18;;;;;;;96.97;46.05;;;3.20;90.40;;;;;;5001579;28;20042;-75
2022/01/26 05:16:44;;;;;;;97.35;47.55;;;3.20;90.40;;;;;;4997947;28;20030;-74
2022/01/26 05:19:10;;;;;;;114.50;52.25;;;3.20;90.30;;;;;;5000692;28;20366;-75
2022/01/26 05:21:36;;;;;;;102.88;51.90;;;3.30;90.40;;;;;;5003066;28;20040;-74
2022/01/26 05:24:02;;;;;;;115.88;54.58;;;3.30;90.40;;;;;;4994633;28;20149;-75
2022/01/26 05:26:28;;;;;;;116.78;53.17;;;3.30;90.40;;;;;;4991100;28;20118;-75
2022/01/26 05:28:54;;;;;;;115.53;55.60;;;3.30;90.50;;;;;;4997343;28;20041;-76
2022/01/26 05:31:20;;;;;;;109.78;53.42;;;3.30;90.40;;;;;;4999458;28;20034;-75
2022/01/26 05:33:45;;;;;;;109.47;54.05;;;3.40;90.50;;;;;;4995827;28;20080;-75
2022/01/26 05:36:11;;;;;;;113.65;55.03;;;3.30;90.40;;;;;;4991493;28;20030;-75
2022/01/26 05:38:37;;;;;;;119.75;56.20;;;3.40;90.50;;;;;;4991075;28;20185;-75
2022/01/26 05:41:04;;;;;;;118.88;55.90;;;3.40;90.40;;;;;;4990810;28;20033;-75
2022/01/26 05:43:33;;;;;;;115.53;56.45;;;3.40;90.30;;;;;;4997995;28;20374;-75
2022/01/26 05:46:05;;;;;;;121.47;58.28;;;3.40;90.40;;;;;;4998719;28;20033;-74
2022/01/26 05:48:31;;;;;;;118.60;58.00;;;3.40;90.20;;;;;;4997434;28;20116;-75
2022/01/26 05:51:05;;;;;;;112.43;56.78;;;3.40;90.00;;;;;;4998340;28;20057;-75
2022/01/26 05:53:31;;;;;;;105.97;55.30;;;3.40;89.90;;;;;;5003836;28;20129;-75
2022/01/26 05:55:58;;;;;;;102.38;53.35;;;3.40;89.80;;;;;;5001605;28;20036;-75
2022/01/26 05:58:24;;;;;;;104.13;55.08;;;3.40;89.30;;;;;;5004302;28;20030;-74
2022/01/26 06:00:50;;;;;;;108.07;54.05;;;3.30;89.20;;;;;;4993774;28;20072;-75
2022/01/26 06:03:16;;;;;;;105.57;57.80;;;3.40;89.10;;;;;;5001715;28;20568;-74
2022/01/26 06:05:41;;;;;;;109.43;55.97;;;3.40;88.90;;;;;;4992138;28;20053;-75
2022/01/26 06:08:07;;;;;;;111.22;56.35;;;3.40;88.90;;;;;;4995717;28;20038;-75
2022/01/26 06:10:33;;;;;;;108.28;57.05;;;3.40;88.90;;;;;;4992410;28;20525;-76
2022/01/26 06:12:59;;;;;;;110.35;57.80;;;3.40;88.90;;;;;;4993496;28;20438;-76
2022/01/26 06:15:24;;;;;;;108.68;55.92;;;3.50;88.80;;;;;;4992824;28;20034;-74
2022/01/26 06:17:50;;;;;;;100.72;54.70;;;3.50;88.80;;;;;;4990485;28;20240;-75
2022/01/26 06:20:16;;;;;;;106.45;57.47;;;3.50;88.70;;;;;;4987884;28;20022;-75
2022/01/26 06:22:41;;;;;;;103.25;56.15;;;3.40;88.60;;;;;;4992764;28;20037;-76
2022/01/26 06:25:08;;;;;;;107.05;53.42;;;3.40;88.60;;;;;;4991473;28;20444;-76
2022/01/26 06:27:35;;;;;;;107.03;55.75;;;3.40;88.30;;;;;;4999746;28;20458;-75
2022/01/26 06:30:01;;;;;;;106.78;53.40;;;3.40;88.40;;;;;;4997417;28;20312;-74
2022/01/26 06:32:28;;;;;;;101.63;55.05;;;3.40;88.20;;;;;;4999693;28;20057;-74
2022/01/26 06:34:54;;;;;;;98.07;52.63;;;3.40;88.20;;;;;;5003279;28;20566;-76
2022/01/26 06:37:20;;;;;;;101.38;53.03;;;3.30;88.10;;;;;;5001400;28;20087;-75
2022/01/26 06:39:46;;;;;;;93.30;49.13;;;3.40;87.80;;;;;;5006310;28;20030;-75
2022/01/26 06:42:15;;;;;;;104.18;54.08;;;3.40;87.80;;;;;;5006945;28;20033;-75
2022/01/26 06:45:07;;;;;;;99.82;53.50;;;3.40;87.60;;;;;;4991949;28;20070;-75
2022/01/26 06:47:50;;;;;;;93.18;52.08;;;3.40;87.60;;;;;;4995348;28;20037;-74
2022/01/26 06:50:18;;;;;;;102.50;56.05;;;3.40;87.40;;;;;;4998199;28;20412;-74
2022/01/26 06:52:47;;;;;;;106.75;56.90;;;3.40;87.70;;;;;;5002012;28;20038;-74
2022/01/26 06:55:14;;;;;;;104.80;55.28;;;3.30;87.90;;;;;;4993949;28;20077;-74
2022/01/26 06:57:40;;;;;;;101.13;53.45;;;3.20;87.90;;;;;;4995333;28;20040;-74
2022/01/26 07:00:07;;;;;;;99.43;55.15;;;3.30;88.00;;;;;;4997087;28;20034;-75
2022/01/26 07:02:33;;;;;;;100.80;53.35;;;3.30;87.80;;;;;;4997422;28;20406;-74
2022/01/26 07:04:59;;;;;;;104.63;54.15;;;3.20;87.80;;;;;;5002563;28;20032;-74
2022/01/26 07:07:24;;;;;;;101.55;54.67;;;3.30;87.70;;;;;;5003737;28;20282;-73
2022/01/26 07:09:50;;;;;;;100.88;54.85;;;3.20;87.70;;;;;;5001081;28;20462;-74
2022/01/26 07:12:16;;;;;;;103.13;55.88;;;3.30;87.70;;;;;;5003994;28;20073;-74
2022/01/26 07:21:05;;;;;;;;;;;3.10;87.50;;;;;;5001055;28;20525;-76
2022/01/26 07:23:07;;;;;;;77.53;42.95;;;3.10;87.50;;;;;;4996488;28;19940;-77
2022/01/26 07:25:33;;;;;;;75.93;43.17;;;3.20;87.30;;;;;;4996957;28;20073;-76
2022/01/26 07:28:02;;;;;;;74.45;40.75;;;3.10;87.10;;;;;;5011271;28;20045;-77
2022/01/26 07:30:29;;;;;;;67.70;37.85;;;3.10;87.10;;;;;;5027523;28;20064;-77
2022/01/26 07:32:55;;;;;;;60.75;37.30;;;3.10;87.00;;;;;;5029279;28;20524;-77
2022/01/26 07:35:21;;;;;;;64.72;38.78;;;3.10;87.00;;;;;;5025603;28;21389;-84
2022/01/26 07:37:48;;;;;;;70.30;39.55;;;3.10;87.00;;;;;;5018364;28;20387;-75
2022/01/26 07:40:14;;;;;;;68.45;39.65;;;3.20;86.90;;;;;;5017659;28;20119;-74
2022/01/26 07:42:40;;;;;;;66.32;40.45;;;3.20;86.80;;;;;;5016753;28;20036;-76
2022/01/26 07:45:08;;;;;;;72.63;41.60;;;3.20;86.80;;;;;;5017762;28;20389;-74
2022/01/26 07:47:34;;;;;;;67.28;42.00;;;3.20;86.90;;;;;;5016895;28;20045;-76
2022/01/26 07:50:02;;;;;;;76.20;43.03;;;3.20;86.80;;;;;;5007268;28;20098;-75
2022/01/26 07:52:32;;;;;;;75.22;44.00;;;3.20;86.80;;;;;;5017508;28;20061;-76
2022/01/26 07:54:58;;;;;;;76.13;43.45;;;3.20;86.90;;;;;;5019276;28;20033;-74
2022/01/26 07:57:25;;;;;;;76.82;44.70;;;3.30;86.80;;;;;;5004058;28;20091;-74
2022/01/26 07:59:52;;;;;;;72.50;43.47;;;3.30;86.70;;;;;;5012254;28;20088;-73
2022/01/26 08:02:18;;;;;;;73.93;44.67;;;3.30;86.70;;;;;;5018174;28;20397;-74
2022/01/26 08:04:43;;;;;;;80.05;45.70;;;3.30;86.70;;;;;;5015668;28;20073;-73
2022/01/26 08:07:09;;;;;;;77.80;44.00;;;3.30;86.70;;;;;;5017753;28;20414;-73
2022/01/26 08:09:35;;;;;;;77.40;44.97;;;3.40;86.50;;;;;;5017886;28;20044;-74
2022/01/26 08:12:00;;;;;;;75.93;45.17;;;3.40;86.40;;;;;;5017801;28;20036;-73
2022/01/26 08:14:26;;;;;;;81.28;46.03;;;3.30;86.40;;;;;;5013154;28;20042;-76
2022/01/26 08:16:52;;;;;;;84.18;47.15;;;3.30;86.50;;;;;;5008113;28;20411;-74
2022/01/26 08:19:18;;;;;;;77.15;47.08;;;3.40;86.60;;;;;;4997078;28;20065;-73
2022/01/26 08:21:44;;;;;;;87.55;48.55;;;3.40;86.60;;;;;;5012435;28;20088;-74
2022/01/26 08:24:14;;;;;;;93.53;50.33;;;3.40;86.50;;;;;;5018010;28;20594;-73
2022/01/26 08:26:45;;;;;;;83.13;48.08;;;3.40;86.40;;;;;;5010846;28;20034;-75
2022/01/26 08:29:17;;;;;;;88.57;49.60;;;3.40;86.40;;;;;;5016031;28;20100;-73
2022/01/26 08:31:43;;;;;;;82.57;48.10;;;3.40;86.20;;;;;;4999355;28;20120;-73
2022/01/26 08:34:10;;;;;;;81.63;47.67;;;3.40;86.10;;;;;;5013397;28;20071;-73
2022/01/26 08:36:35;;;;;;;90.47;49.92;;;3.40;86.10;;;;;;5017288;28;20469;-74
2022/01/26 08:39:01;;;;;;;86.28;51.13;;;3.40;86.00;;;;;;5017261;28;20792;-70
2022/01/26 08:41:28;;;;;;;86.22;48.17;;;3.40;86.00;;;;;;5014517;28;20141;-70
2022/01/26 08:43:54;;;;;;;89.88;50.20;;;3.50;85.90;;;;;;5012199;28;20042;-69
2022/01/26 08:46:20;;;;;;;82.28;50.42;;;3.40;85.90;;;;;;5011987;28;20484;-70
2022/01/26 08:48:46;;;;;;;92.22;52.20;;;3.40;86.10;;;;;;5015310;28;20037;-68
2022/01/26 08:51:13;;;;;;;88.78;51.88;;;3.40;86.10;;;;;;5011863;28;20032;-70
2022/01/26 08:53:39;;;;;;;87.07;50.92;;;3.40;86.00;;;;;;4995092;28;20047;-69
2022/01/26 08:56:05;;;;;;;87.50;51.45;;;3.40;86.00;;;;;;5014839;28;20029;-70
2022/01/26 08:58:30;;;;;;;86.55;51.63;;;3.50;85.90;;;;;;5000197;28;20132;-69
2022/01/26 09:00:56;;;;;;;87.72;51.90;;;3.50;85.80;;;;;;5019158;28;20544;-73
2022/01/26 09:03:22;;;;;;;83.68;50.35;;;3.40;85.70;;;;;;5018448;28;20461;-70
2022/01/26 09:05:48;;;;;;;88.13;50.88;;;3.40;85.70;;;;;;5003350;28;20025;-72
2022/01/26 09:08:14;;;;;;;89.00;49.30;;;3.40;85.80;;;;;;5021215;28;20164;-69
2022/01/26 09:10:40;;;;;;;81.22;49.22;;;3.50;85.70;;;;;;5020532;28;20305;-70
2022/01/26 09:13:06;;;;;;;88.40;51.83;;;3.40;85.90;;;;;;5018952;28;20083;-69
2022/01/26 09:15:33;;;;;;;88.93;50.08;;;3.40;85.90;;;;;;5018625;28;20037;-70
2022/01/26 09:18:04;;;;;;;90.32;50.85;;;3.50;85.70;;;;;;5020149;28;20485;-69
2022/01/26 09:20:33;;;;;;;88.22;52.05;;;3.40;85.80;;;;;;5020512;28;20437;-69
2022/01/26 09:22:59;;;;;;;91.00;53.42;;;3.50;85.80;;;;;;5019666;28;20281;-70
2022/01/26 09:25:25;;;;;;;81.85;49.67;;;3.50;85.40;;;;;;5019192;28;20178;-71
2022/01/26 09:27:50;;;;;;;88.40;50.88;;;3.60;85.60;;;;;;5018440;28;20053;-69
2022/01/26 09:30:16;;;;;;;88.55;50.92;;;3.50;85.60;;;;;;5019363;28;20149;-71
2022/01/26 09:32:41;;;;;;;88.35;52.15;;;3.50;85.70;;;;;;5016566;28;20077;-70
2022/01/26 09:35:09;;;;;;;82.97;50.88;;;3.50;85.40;;;;;;5018012;28;20037;-70
2022/01/26 09:37:35;;;;;;;84.57;50.63;;;3.50;85.30;;;;;;5018034;28;20095;-70
2022/01/26 09:40:00;;;;;;;84.75;47.95;;;3.50;85.30;;;;;;5018725;28;20145;-70
2022/01/26 09:42:26;;;;;;;81.43;49.50;;;3.50;85.40;;;;;;5019952;28;20033;-72
2022/01/26 09:44:52;;;;;;;84.18;49.80;;;3.50;85.40;;;;;;5001095;28;20093;-70
2022/01/26 09:47:21;;;;;;;81.60;50.15;;;3.60;85.30;;;;;;5018993;28;20144;-69
2022/01/26 09:49:49;;;;;;;79.25;48.55;;;3.50;85.30;;;;;;5002307;28;20041;-70
2022/01/26 09:52:20;;;;;;;79.90;49.50;;;3.50;85.30;;;;;;4999296;28;20045;-70
2022/01/26 09:54:47;;;;;;;87.78;51.90;;;3.60;85.40;;;;;;5017528;28;20021;-71
2022/01/26 09:57:13;;;;;;;83.13;49.38;;;3.60;85.20;;;;;;5017175;28;20436;-70
2022/01/26 09:59:38;;;;;;;83.55;49.92;;;3.60;85.30;;;;;;5017915;28;20372;-70
2022/01/26 10:02:04;;;;;;;81.00;50.10;;;3.60;84.90;;;;;;5018071;28;20045;-69
2022/01/26 10:04:39;;;;;;;79.95;46.88;;;3.60;84.90;;;;;;5018904;28;20374;-70
2022/01/26 10:15:54;;;;;;;81.20;47.38;;;3.60;84.80;;;;;;5014779;28;20064;-70
2022/01/26 10:18:15;;;;;;;78.28;47.92;;;3.70;84.90;;;;;;5015071;28;20029;-70
2022/01/26 10:20:48;;;;;;;78.95;47.00;;;3.70;84.70;;;;;;5017724;28;20033;-71
2022/01/26 10:23:19;;;;;;;81.72;47.58;;;3.80;84.50;;;;;;5017663;28;20079;-71
2022/01/26 10:25:58;;;;;;;79.53;47.80;;;3.80;84.50;;;;;;5024411;28;20030;-71
2022/01/26 10:28:24;;;;;;;79.32;46.90;;;3.80;84.60;;;;;;5017180;28;20038;-71
2022/01/26 10:30:50;;;;;;;80.45;45.42;;;3.90;84.50;;;;;;5019253;28;20406;-71
2022/01/26 10:33:16;;;;;;;77.07;48.22;;;3.90;84.10;;;;;;5017284;28;20476;-69
2022/01/26 10:35:43;;;;;;;77.82;44.55;;;4.00;83.60;;;;;;5015090;28;20056;-70
2022/01/26 10:38:09;;;;;;;78.97;44.83;;;4.00;83.80;;;;;;5008756;28;20042;-71
2022/01/26 10:40:39;;;;;;;85.10;48.28;;;4.00;84.00;;;;;;4999919;28;20376;-72
2022/01/26 10:43:11;;;;;;;86.20;48.13;;;4.10;83.80;;;;;;5021690;28;20091;-70
2022/01/26 10:46:01;;;;;;;82.03;46.90;;;4.00;83.60;;;;;;5028577;28;20491;-70
2022/01/26 10:48:55;;;;;;;83.13;46.58;;;4.10;83.60;;;;;;5009566;28;20037;-71
2022/01/26 10:51:36;;;;;;;83.32;47.85;;;4.10;83.80;;;;;;4992018;28;20077;-71
2022/01/26 10:54:19;;;;;;;83.28;48.38;;;4.10;83.70;;;;;;4992950;28;20096;-73
2022/01/26 10:56:45;;;;;;;88.38;48.95;;;4.10;83.90;;;;;;4998073;28;20041;-72
2022/01/26 10:59:11;;;;;;;91.72;49.60;;;4.10;84.00;;;;;;4996315;28;20034;-72
2022/01/26 11:01:37;;;;;;;90.32;49.22;;;4.00;84.00;;;;;;4998007;28;20095;-72
2022/01/26 11:04:04;;;;;;;88.68;47.83;;;4.10;84.40;;;;;;4993183;28;20644;-71
2022/01/26 11:06:30;;;;;;;91.97;48.13;;;4.10;84.30;;;;;;4998249;28;20054;-71
2022/01/26 11:09:02;;;;;;;86.22;46.65;;;4.10;84.10;;;;;;5001493;28;20120;-72
2022/01/26 11:11:28;;;;;;;90.50;48.28;;;4.10;84.10;;;;;;4994143;28;20167;-71
2022/01/26 11:13:54;;;;;;;84.60;46.88;;;4.10;84.10;;;;;;4987743;28;20160;-72
2022/01/26 11:16:20;;;;;;;82.75;44.90;;;4.10;83.90;;;;;;4985899;28;20177;-72
2022/01/26 11:18:51;;;;;;;81.18;44.92;;;4.10;83.80;;;;;;4986667;28;20034;-73
2022/01/26 11:21:35;;;;;;;76.60;44.88;;;4.20;83.50;;;;;;4984175;28;20045;-72
2022/01/26 11:24:09;;;;;;;73.45;43.72;;;4.20;83.60;;;;;;4985146;28;20516;-72
2022/01/26 11:26:38;;;;;;;80.32;46.30;;;4.30;83.30;;;;;;4977197;28;20037;-72
2022/01/26 11:29:34;;;;;;;77.60;43.88;;;4.30;83.10;;;;;;4983509;28;20037;-72
2022/01/26 11:32:07;;;;;;;76.40;45.38;;;4.40;83.00;;;;;;4982652;28;20077;-72
2022/01/26 11:34:34;;;;;;;80.53;44.75;;;4.40;82.80;;;;;;4982175;28;20378;-71
2022/01/26 11:37:02;;;;;;;72.72;44.28;;;4.40;82.80;;;;;;4981891;28;20524;-69
2022/01/26 11:42:34;;;;;;;;;;;4.40;83.30;;;;;;4970743;28;20053;-71
2022/01/26 11:45:15;;;;;;;74.22;43.20;;;4.60;83.10;;;;;;4964356;28;20247;-72
2022/01/26 11:47:57;;;;;;;71.32;42.97;;;4.60;82.50;;;;;;4959326;28;20420;-71
2022/01/26 11:50:23;;;;;;;71.18;42.15;;;4.60;82.50;;;;;;4959530;28;20523;-70
2022/01/26 11:53:05;;;;;;;73.55;42.83;;;4.60;82.80;;;;;;4958087;28;20093;-70
2022/01/26 11:55:34;;;;;;;71.47;42.03;;;4.70;82.50;;;;;;4958842;28;20041;-70
2022/01/26 11:58:33;;;;;;;77.88;43.60;;;4.60;82.50;;;;;;4960117;28;20493;-72
2022/01/26 12:04:00;;;;;;;73.90;44.25;;;4.70;82.50;;;;;;4959907;28;20138;-70
2022/01/26 12:06:41;;;;;;;73.22;42.88;;;4.80;82.10;;;;;;4963814;28;20027;-71
2022/01/26 12:09:09;;;;;;;74.85;43.15;;;4.80;82.20;;;;;;4961583;28;20046;-71
2022/01/26 12:11:36;;;;;;;71.07;43.50;;;4.90;82.10;;;;;;4962185;28;20192;-71
2022/01/26 12:14:06;;;;;;;74.93;46.03;;;4.80;82.10;;;;;;4961537;28;20100;-70
2022/01/26 12:16:39;;;;;;;71.15;42.50;;;5.00;82.40;;;;;;4959611;28;20045;-71
2022/01/26 12:38:21;;;;;;;68.63;40.25;;;5.20;81.40;;;;;;4999000;28;20096;-71
2022/01/26 12:43:38;;;;;;;70.10;40.08;;;5.10;81.20;;;;;;4999168;28;20051;-72
2022/01/26 12:46:06;;;;;;;63.70;37.35;;;5.20;81.10;;;;;;5003945;28;20235;-71
2022/01/26 12:48:34;;;;;;;63.80;37.70;;;5.20;81.10;;;;;;4998074;28;20041;-70
2022/01/26 12:51:02;;;;;;;62.17;38.65;;;5.30;80.80;;;;;;4994399;28;20045;-73
2022/01/26 12:53:29;;;;;;;61.38;38.05;;;5.30;80.90;;;;;;5003863;28;20104;-73
2022/01/26 12:56:00;;;;;;;63.00;37.95;;;5.20;80.80;;;;;;5006983;28;20036;-74
2022/01/26 12:58:32;;;;;;;62.83;37.30;;;5.30;80.80;;;;;;5053783;28;20045;-68
2022/01/26 13:01:06;;;;;;;60.33;36.05;;;5.30;81.10;;;;;;5027372;28;20021;-70
2022/01/26 13:03:33;;;;;;;;;;;5.30;80.80;;;;;;4976941;28;20330;-71
2022/01/26 13:06:13;;;;;;;60.97;36.22;;;5.20;80.90;;;;;;5002350;28;20517;-73
2022/01/26 13:08:44;;;;;;;64.57;37.75;;;5.20;81.30;;;;;;5004756;28;20458;-71
2022/01/26 13:11:09;;;;;;;60.30;37.50;;;5.20;81.30;;;;;;4999714;28;20686;-71
2022/01/26 13:13:35;;;;;;;60.95;37.63;;;5.20;81.30;;;;;;5009349;28;20037;-70
2022/01/26 13:16:15;;;;;;;67.70;38.90;;;5.20;81.40;;;;;;4999094;28;20462;-73
2022/01/26 13:19:10;;;;;;;61.67;37.75;;;5.20;81.50;;;;;;4996410;28;20025;-73
2022/01/26 13:24:19;;;;;;;60.85;36.85;;;5.30;81.80;;;;;;5009200;28;20079;-71
2022/01/26 13:35:31;;;;;;;63.25;39.33;;;5.40;81.30;;;;;;5012640;28;20040;-71
2022/01/26 13:59:38;;;;;;;57.20;37.08;;;5.60;81.00;;;;;;5014242;28;20075;-68
2022/01/26 14:02:04;;;;;;;65.50;39.30;;;5.60;81.20;;;;;;5000697;28;20144;-69
2022/01/26 14:04:29;;;;;;;70.28;41.50;;;5.60;81.20;;;;;;5007110;28;20439;-69
2022/01/26 14:06:55;;;;;;;68.45;39.38;;;5.70;81.10;;;;;;5001197;28;20219;-69
2022/01/26 14:09:21;;;;;;;63.85;38.15;;;5.60;81.10;;;;;;4997850;28;20240;-69
2022/01/26 14:11:48;;;;;;;66.13;39.20;;;5.60;81.30;;;;;;5008824;28;20036;-71
2022/01/26 14:14:22;;;;;;;64.95;38.58;;;5.60;81.40;;;;;;5012584;28;20372;-72
2022/01/26 14:16:56;;;;;;;70.75;40.33;;;5.50;81.60;;;;;;5006273;28;20104;-69
2022/01/26 14:27:17;;;;;;;65.97;37.97;;;5.50;81.90;;;;;;5006343;28;20404;-70
2022/01/26 16:35:31;;;;;;;60.97;34.65;;;5.30;84.60;;;;;;4996439;28;20044;-69
2022/01/26 17:21:16;;;;;;;56.10;33.92;;;5.20;84.50;;;;;;5003562;28;20442;-75
2022/01/26 17:24:43;;;;;;;58.17;33.88;;;5.20;84.70;;;;;;5007519;28;20291;-76
2022/01/26 17:34:28;;;;;;;55.70;33.17;;;5.20;84.70;;;;;;4992742;28;20113;-74
2022/01/26 18:15:46;;;;;;;38.42;24.80;;;5.40;82.20;;;;;;5014677;28;20879;-74
2022/01/26 18:32:08;;;;;;;42.78;25.25;;;5.40;82.20;;;;;;5009257;28;20080;-76
2022/01/26 18:51:05;;;;;;;34.37;23.00;;;5.40;81.40;;;;;;5010133;28;20060;-77
2022/01/26 18:53:31;;;;;;;38.65;24.27;;;5.40;81.30;;;;;;4993753;28;20049;-74
2022/01/26 18:55:56;;;;;;;39.35;24.90;;;5.50;81.30;;;;;;5001666;28;20033;-75
2022/01/26 18:58:22;;;;;;;36.95;23.27;;;5.50;81.20;;;;;;5009744;28;20167;-74
2022/01/26 19:00:48;;;;;;;37.38;23.63;;;5.50;81.40;;;;;;5011772;28;20045;-73
2022/01/26 19:03:14;;;;;;;38.95;23.33;;;5.40;81.50;;;;;;5010672;28;20092;-75
2022/01/26 19:05:40;;;;;;;35.30;23.38;;;5.40;81.20;;;;;;5015415;28;20496;-73
2022/01/26 19:08:06;;;;;;;36.75;24.35;;;5.40;80.90;;;;;;5002508;28;20029;-74
2022/01/26 19:10:32;;;;;;;38.22;24.98;;;5.50;80.90;;;;;;4983527;28;20359;-75
2022/01/26 19:12:58;;;;;;;35.50;24.00;;;5.50;80.90;;;;;;4990129;28;20534;-73
2022/01/26 19:15:28;;;;;;;35.35;23.02;;;5.50;81.00;;;;;;5006696;28;20041;-74
2022/01/26 19:18:03;;;;;;;36.58;23.13;;;5.40;80.90;;;;;;5008281;28;20103;-75
2022/01/26 19:20:49;;;;;;;38.78;22.88;;;5.40;81.00;;;;;;5001898;28;20064;-74
2022/01/26 19:23:36;;;;;;;36.30;23.00;;;5.40;80.80;;;;;;5012156;28;20187;-74
2022/01/26 19:26:08;;;;;;;33.20;22.60;;;5.40;80.70;;;;;;5012801;28;20039;-73
2022/01/26 19:28:39;;;;;;;39.30;24.70;;;5.40;80.90;;;;;;5004196;28;20392;-74
2022/01/26 19:52:38;;;;;;;41.80;26.80;;;5.40;80.30;;;;;;5013528;28;20060;-74
2022/01/26 19:55:05;;;;;;;38.33;26.88;;;5.40;80.50;;;;;;5010918;28;20088;-76
2022/01/26 19:57:31;;;;;;;37.28;27.40;;;5.40;80.60;;;;;;5016707;28;20202;-73
2022/01/26 19:59:56;;;;;;;38.53;25.75;;;5.40;80.30;;;;;;5016747;28;20343;-74
2022/01/26 20:02:22;;;;;;;36.70;25.35;;;5.30;80.40;;;;;;5016306;28;20111;-75
2022/01/26 20:04:48;;;;;;;36.65;24.33;;;5.30;80.60;;;;;;5002020;28;20039;-74